Mackinaw City, MI

9:26 AM EDT on April 19, 2015 (GMT -0400)
Mackinac Island | | Change Station
CLOSE
Current Station
Airport
Location: Mackinac Island,
Elevation: 741 ft
Nearby Weather Stations

Elev 741 ft 45.87 °N, 84.64 °W | Updated 10 minutes ago

Clear
Clear
37 °F
Feels Like 26 °F
N
22
Wind Variable Wind from East
Gusts 30 mph

Today
High -- | Low -- °F
--% Chance of Precip.
Yesterday
High -- | Low -- °F
Precip. -- in
6:46 AM 8:30 PM
New Moon, 1% visible
Pressure 30.13 in
Visibility 10.0 miles
Clouds Clear
Windchill 26 °F
Dew Point 31 °F
Humidity 80%
Rainfall 0.00 in
Snow Depth Not available.
UV 2 out of 12
Pollen 9.80 out of 12
Air Quality Not available.
Flu Activity Regional
METAR KMCD 191316Z AUTO 10019G26KT 10SM CLR 03/00 A3013 RMK AO2 T00271005

More Conditions Fewer Conditions

Pressure 30.13 in
Visibility 10.0 miles
Clouds Clear
Windchill 26 °F
Dew Point 31 °F
Humidity 80%
Rainfall 0.00 in
Snow Depth Not available.
UV 2 out of 12
Pollen 9.80 out of 12
Air Quality Not available.
Flu Activity Regional
METAR KMCD 191316Z AUTO 10019G26KT 10SM CLR 03/00 A3013 RMK AO2 T00271005

More Conditions Fewer Conditions

Nowcast | as of 9:00 am EDT on April 19, 2015

At 10 am...mostly clear. Temperature 47. East winds 14 mph. At 12 PM...partly cloudy. Temperature 52. East winds 14 mph. At 2 PM...partly cloudy. Temperature 55. East winds 14 mph. At 4 PM...mostly cloudy. Temperature 55. East winds 14 mph.

×

10-Day Weather Forecast

Almanac

Astronomy

Apr. 19, 2015 Rise Set
Actual Time
Civil Twilight
Nautical Twilight
Astronomical Twilight
Moon
Length of Visible Light
Length of Day
Tomorrow will be .
, % of the Moon is Illuminated

Today's Extremes

State Highs State Lows

Community

WunderPhotos

Upload Photos

1,814,791 photos uploaded!

WunderBlogs® & News

Nearby

Air Quality

  Air Quality AQ Index Pollutant
Not available.

Snow Depth

Station Depth Elevation

Earthquake Activity

City Distance Mag. Time & Date
Minimum magnitude displayed is 2.5.

Coastal Water Temperatures

Place Temperature

Stations

Nearby Weather Stations

Station Location Temp. Windchill Dew Point Humidity Wind Precip. Elev Updated Type